createdAt,value
2019-03-30T00:00:34.177Z,87.00
2019-03-30T00:03:02.830Z,87.20
2019-03-30T00:05:31.401Z,87.20
2019-03-30T00:08:00.297Z,87.40
2019-03-30T00:10:28.909Z,86.80
2019-03-30T00:12:57.619Z,87.30
2019-03-30T00:15:26.235Z,87.00
2019-03-30T00:17:54.851Z,87.20
2019-03-30T00:20:23.525Z,87.20
2019-03-30T00:22:52.187Z,87.60
2019-03-30T00:25:20.791Z,87.30
2019-03-30T00:27:49.349Z,87.40
2019-03-30T00:30:19.293Z,87.50
2019-03-30T00:32:48.170Z,87.20
2019-03-30T00:35:16.872Z,87.20
2019-03-30T00:37:45.548Z,87.50
2019-03-30T00:40:14.186Z,87.80
2019-03-30T00:42:42.786Z,87.80
2019-03-30T00:45:11.622Z,87.90
2019-03-30T00:47:40.242Z,88.10
2019-03-30T00:50:09.078Z,87.90
2019-03-30T00:52:37.714Z,88.00
2019-03-30T00:55:07.267Z,88.10
2019-03-30T00:57:35.946Z,88.50
2019-03-30T01:00:06.912Z,88.20
2019-03-30T01:02:35.574Z,88.60
2019-03-30T01:05:05.958Z,88.70
2019-03-30T01:07:34.627Z,88.70
2019-03-30T01:10:04.474Z,89.30
2019-03-30T01:12:33.103Z,89.90
2019-03-30T01:15:01.831Z,88.80
2019-03-30T01:17:30.437Z,89.20
2019-03-30T01:20:03.055Z,89.10
2019-03-30T01:22:29.385Z,89.30
2019-03-30T01:24:58.119Z,89.40
2019-03-30T01:27:26.697Z,90.00
2019-03-30T01:29:55.306Z,90.00
2019-03-30T01:32:23.919Z,90.00
2019-03-30T01:34:52.522Z,90.10
2019-03-30T01:37:21.225Z,90.00
2019-03-30T01:39:49.870Z,90.30
2019-03-30T01:42:18.433Z,90.20
2019-03-30T01:44:47.182Z,90.20
2019-03-30T01:47:15.758Z,90.30
2019-03-30T01:49:44.473Z,90.30
2019-03-30T01:52:13.156Z,90.30
2019-03-30T01:54:41.746Z,90.20
2019-03-30T01:57:10.462Z,90.30
2019-03-30T01:59:39.073Z,90.30
2019-03-30T02:02:07.677Z,90.10
2019-03-30T02:04:36.249Z,90.50
2019-03-30T02:07:04.891Z,90.30
2019-03-30T02:09:33.599Z,90.50
2019-03-30T02:12:02.398Z,90.50
2019-03-30T02:14:31.065Z,90.40
2019-03-30T02:16:59.792Z,90.50
2019-03-30T02:19:28.510Z,90.30
2019-03-30T02:21:57.149Z,90.60
2019-03-30T02:24:25.737Z,90.40
2019-03-30T02:26:54.355Z,90.50
2019-03-30T02:29:22.974Z,90.50
2019-03-30T02:31:51.539Z,90.70
2019-03-30T02:34:20.165Z,90.70
2019-03-30T02:36:48.806Z,90.70
2019-03-30T02:39:17.497Z,90.70
2019-03-30T02:41:46.173Z,90.90
2019-03-30T02:44:14.898Z,90.70
2019-03-30T02:46:43.547Z,90.70
2019-03-30T02:49:12.133Z,90.60
2019-03-30T02:51:40.746Z,90.80
2019-03-30T02:54:09.396Z,90.80
2019-03-30T02:56:38.117Z,91.00
2019-03-30T02:59:06.867Z,91.10
2019-03-30T03:01:35.461Z,90.90
2019-03-30T03:04:04.199Z,91.00
2019-03-30T03:06:32.923Z,91.40
2019-03-30T03:09:01.529Z,91.70
2019-03-30T03:11:30.147Z,91.30
2019-03-30T03:13:58.731Z,91.40
2019-03-30T03:16:27.692Z,91.30
2019-03-30T03:18:56.294Z,91.20
2019-03-30T03:21:24.965Z,91.30
2019-03-30T03:23:53.570Z,91.40
2019-03-30T03:26:22.141Z,91.20
2019-03-30T03:28:50.742Z,91.10
2019-03-30T03:31:19.482Z,91.10
2019-03-30T03:33:48.077Z,91.10
2019-03-30T03:36:16.679Z,91.10
2019-03-30T03:38:45.281Z,91.00
2019-03-30T03:41:13.884Z,90.90
2019-03-30T03:43:42.559Z,91.00
2019-03-30T03:46:11.316Z,91.20
2019-03-30T03:48:40.133Z,91.30
2019-03-30T03:51:24.874Z,91.20
2019-03-30T03:53:39.427Z,91.50
2019-03-30T03:56:09.429Z,91.60
2019-03-30T03:58:39.974Z,91.60
2019-03-30T04:01:08.848Z,91.60
2019-03-30T04:03:39.149Z,91.60
2019-03-30T04:06:08.339Z,91.80
2019-03-30T04:08:37.375Z,91.90
2019-03-30T04:11:07.116Z,92.00
2019-03-30T04:13:37.104Z,92.20
2019-03-30T04:16:05.694Z,92.70
2019-03-30T04:18:34.359Z,92.20
2019-03-30T04:21:02.973Z,92.20
2019-03-30T04:23:31.584Z,92.00
2019-03-30T04:26:00.264Z,92.10
2019-03-30T04:28:28.881Z,92.30
2019-03-30T04:30:57.579Z,92.10
2019-03-30T04:33:26.183Z,92.40
2019-03-30T04:35:54.779Z,92.20
2019-03-30T04:38:23.380Z,92.30
2019-03-30T04:40:52.023Z,92.20
2019-03-30T04:43:20.645Z,92.30
2019-03-30T04:45:49.250Z,92.30
2019-03-30T04:48:17.834Z,92.30
2019-03-30T04:50:46.502Z,92.40
2019-03-30T04:53:15.086Z,92.40
2019-03-30T04:55:43.681Z,92.30
2019-03-30T04:58:12.422Z,92.20
2019-03-30T05:00:41.009Z,92.30
2019-03-30T05:03:09.843Z,92.20
2019-03-30T05:05:38.466Z,92.20
2019-03-30T05:08:07.066Z,92.10
2019-03-30T05:10:35.732Z,92.00
2019-03-30T05:13:04.378Z,92.00
2019-03-30T05:15:33.110Z,91.90
2019-03-30T05:18:01.715Z,92.10
2019-03-30T05:20:30.305Z,91.90
2019-03-30T05:22:58.999Z,91.80
2019-03-30T05:25:27.609Z,91.60
2019-03-30T05:27:56.227Z,91.50
2019-03-30T05:30:24.794Z,91.20
2019-03-30T05:33:04.849Z,91.30
2019-03-30T05:35:23.826Z,90.90
2019-03-30T05:37:52.390Z,90.80
2019-03-30T05:40:21.042Z,90.80
2019-03-30T05:42:49.613Z,90.50
2019-03-30T05:45:18.375Z,90.20
2019-03-30T05:47:46.946Z,90.30
2019-03-30T05:50:15.616Z,90.20
2019-03-30T05:52:44.218Z,90.10
2019-03-30T05:55:13.011Z,89.40
2019-03-30T05:57:41.613Z,89.60
2019-03-30T06:00:12.817Z,88.70
2019-03-30T06:02:41.439Z,88.80
2019-03-30T06:05:10.216Z,88.50
2019-03-30T06:07:38.881Z,88.60
2019-03-30T06:10:07.881Z,88.20
2019-03-30T06:12:36.467Z,88.10
2019-03-30T06:15:07.576Z,88.30
2019-03-30T06:17:36.248Z,88.00
2019-03-30T06:20:06.585Z,87.90
2019-03-30T06:22:40.640Z,87.10
2019-03-30T06:25:05.830Z,87.30
2019-03-30T06:27:34.497Z,86.70
2019-03-30T06:30:17.299Z,86.30
2019-03-30T06:32:46.189Z,86.20
2019-03-30T06:35:14.925Z,84.90
2019-03-30T06:37:43.509Z,84.80
2019-03-30T06:40:12.374Z,85.90
2019-03-30T06:42:41.077Z,84.20
2019-03-30T06:45:09.947Z,84.20
2019-03-30T06:47:38.542Z,83.70
2019-03-30T06:50:08.049Z,85.60
2019-03-30T06:52:36.646Z,83.70
2019-03-30T06:55:06.631Z,83.50
2019-03-30T06:57:35.313Z,82.90
2019-03-30T07:00:04.935Z,83.50
2019-03-30T07:02:33.653Z,82.80
2019-03-30T07:05:02.606Z,83.00
2019-03-30T07:07:32.595Z,82.30
2019-03-30T07:10:04.070Z,81.90
2019-03-30T07:12:35.782Z,81.80
2019-03-30T07:15:06.146Z,81.30
2019-03-30T07:17:37.786Z,81.40
2019-03-30T07:20:09.635Z,81.10
2019-03-30T07:22:38.255Z,79.60
2019-03-30T07:25:06.889Z,77.50
2019-03-30T07:27:35.497Z,74.00
2019-03-30T07:30:06.740Z,69.60
2019-03-30T07:32:35.258Z,71.10
2019-03-30T07:35:04.710Z,70.70
2019-03-30T07:37:33.389Z,71.60
2019-03-30T07:40:01.949Z,68.00
2019-03-30T07:42:30.573Z,64.70
2019-03-30T07:44:59.143Z,61.90
2019-03-30T07:47:27.736Z,67.10
2019-03-30T07:49:56.307Z,64.10
2019-03-30T07:52:24.913Z,63.60
2019-03-30T07:54:53.591Z,62.50
2019-03-30T07:57:22.264Z,59.70
2019-03-30T07:59:50.823Z,56.00
2019-03-30T08:02:19.434Z,55.00
2019-03-30T08:04:48.009Z,54.90
2019-03-30T08:07:16.916Z,59.00
2019-03-30T08:09:45.576Z,61.50
2019-03-30T08:12:14.298Z,61.00
2019-03-30T08:14:45.155Z,60.60
2019-03-30T08:17:13.142Z,58.20
2019-03-30T08:19:41.793Z,57.60
2019-03-30T08:22:10.350Z,58.60
2019-03-30T08:24:39.036Z,58.50
2019-03-30T08:27:09.260Z,54.80
2019-03-30T08:29:37.856Z,55.90
2019-03-30T08:32:06.765Z,56.70
2019-03-30T08:34:35.419Z,56.80
2019-03-30T08:37:04.102Z,58.00
2019-03-30T08:39:32.696Z,56.60
2019-03-30T08:42:01.297Z,55.60
2019-03-30T08:44:29.899Z,51.80
2019-03-30T08:46:58.494Z,52.60
2019-03-30T08:49:27.129Z,51.60
2019-03-30T08:51:55.774Z,53.90
2019-03-30T08:54:24.633Z,57.00
2019-03-30T08:56:53.190Z,56.00
2019-03-30T08:59:21.863Z,51.40
2019-03-30T09:01:50.457Z,51.50
2019-03-30T09:04:19.141Z,47.60
2019-03-30T09:06:47.707Z,48.20
2019-03-30T09:09:16.313Z,48.00
2019-03-30T09:11:45.026Z,53.00
2019-03-30T09:14:13.650Z,51.30
2019-03-30T09:16:42.480Z,53.00
2019-03-30T09:19:11.068Z,52.00
2019-03-30T09:21:39.754Z,47.50
2019-03-30T09:24:10.130Z,46.50
2019-03-30T09:26:38.709Z,48.00
2019-03-30T09:29:07.305Z,51.00
2019-03-30T09:31:36.126Z,50.00
2019-03-30T09:34:05.750Z,47.90
2019-03-30T09:36:34.474Z,51.30
2019-03-30T09:39:04.178Z,49.30
2019-03-30T09:41:32.951Z,47.60
2019-03-30T09:44:01.573Z,50.20
2019-03-30T09:46:30.370Z,49.50
2019-03-30T09:48:59.139Z,46.50
2019-03-30T09:51:27.887Z,47.70
2019-03-30T09:53:56.589Z,49.50
2019-03-30T09:56:25.189Z,49.00
2019-03-30T09:58:53.845Z,49.10
2019-03-30T10:01:22.404Z,47.40
2019-03-30T10:03:51.229Z,47.10
2019-03-30T10:06:19.798Z,48.90
2019-03-30T10:08:48.401Z,49.30
2019-03-30T10:11:17.003Z,48.80
2019-03-30T10:13:45.741Z,45.60
2019-03-30T10:16:14.423Z,48.40
2019-03-30T10:18:42.991Z,47.40
2019-03-30T10:21:11.640Z,49.20
2019-03-30T10:23:40.209Z,48.60
2019-03-30T10:26:08.909Z,47.20
2019-03-30T10:28:37.540Z,50.30
2019-03-30T10:31:06.264Z,49.30
2019-03-30T10:33:34.766Z,52.60
2019-03-30T10:36:03.450Z,49.30
2019-03-30T10:38:32.092Z,48.60
2019-03-30T10:41:00.715Z,47.20
2019-03-30T10:43:29.306Z,44.60
2019-03-30T10:45:57.877Z,45.50
2019-03-30T10:48:26.482Z,48.00
2019-03-30T10:50:55.106Z,46.80
2019-03-30T10:53:23.720Z,48.70
2019-03-30T10:55:52.355Z,47.50
2019-03-30T10:58:20.960Z,43.70
2019-03-30T11:00:49.571Z,45.10
2019-03-30T11:03:18.205Z,48.60
2019-03-30T11:05:46.970Z,48.80
2019-03-30T11:08:15.629Z,46.80
2019-03-30T11:10:44.527Z,48.70
2019-03-30T11:13:13.289Z,49.70
2019-03-30T11:15:41.886Z,51.50
2019-03-30T11:18:10.551Z,50.00
2019-03-30T11:20:39.165Z,48.00
2019-03-30T11:23:07.767Z,52.20
2019-03-30T11:25:36.510Z,50.50
2019-03-30T11:28:05.228Z,50.00
2019-03-30T11:30:33.808Z,50.30
2019-03-30T11:33:02.448Z,51.90
2019-03-30T11:35:31.153Z,51.30
2019-03-30T11:37:59.831Z,49.50
2019-03-30T11:40:28.578Z,49.00
2019-03-30T11:42:57.243Z,50.70
2019-03-30T11:45:25.979Z,52.50
2019-03-30T11:47:54.558Z,53.70
2019-03-30T11:50:23.165Z,53.70
2019-03-30T11:52:51.790Z,52.10
2019-03-30T11:55:21.956Z,51.50
2019-03-30T11:57:50.714Z,51.80
2019-03-30T12:00:19.613Z,50.90
2019-03-30T12:02:48.252Z,49.30
2019-03-30T12:05:16.913Z,51.40
2019-03-30T12:07:45.661Z,53.60
2019-03-30T12:10:14.608Z,52.00
2019-03-30T12:12:43.217Z,53.10
2019-03-30T12:15:12.998Z,53.60
2019-03-30T12:17:41.632Z,55.10
2019-03-30T12:20:10.589Z,55.70
2019-03-30T12:22:39.360Z,56.50
2019-03-30T12:25:08.391Z,56.10
2019-03-30T12:27:37.007Z,56.90
2019-03-30T12:30:10.557Z,55.90
2019-03-30T12:32:39.273Z,55.70
2019-03-30T12:35:08.114Z,57.10
2019-03-30T12:37:37.317Z,56.50
2019-03-30T12:40:07.102Z,57.20
2019-03-30T12:42:35.779Z,56.80
2019-03-30T12:45:06.703Z,56.80
2019-03-30T12:47:35.314Z,57.40
2019-03-30T12:50:05.804Z,57.70
2019-03-30T12:52:34.373Z,56.70
2019-03-30T12:55:03.692Z,57.00
2019-03-30T12:57:32.351Z,56.80
2019-03-30T13:00:01.027Z,56.50
2019-03-30T13:02:29.966Z,56.50
2019-03-30T13:04:58.542Z,56.80
2019-03-30T13:07:27.170Z,57.30
2019-03-30T13:09:55.825Z,56.80
2019-03-30T13:12:24.477Z,57.00
2019-03-30T13:14:53.156Z,56.40
2019-03-30T13:17:21.798Z,55.40
2019-03-30T13:19:50.456Z,55.10
2019-03-30T13:22:19.065Z,55.90
2019-03-30T13:24:47.790Z,56.40
2019-03-30T13:27:16.478Z,55.70
2019-03-30T13:29:45.126Z,55.50
2019-03-30T13:32:13.944Z,54.50
2019-03-30T13:34:42.759Z,53.90
2019-03-30T13:37:19.160Z,54.00
2019-03-30T13:39:47.802Z,54.40
2019-03-30T13:42:16.425Z,54.40
2019-03-30T13:44:45.254Z,54.70
2019-03-30T13:47:13.893Z,55.00
2019-03-30T13:49:42.567Z,55.30
2019-03-30T13:52:11.173Z,54.80
2019-03-30T13:54:39.802Z,55.00
2019-03-30T13:57:08.460Z,52.80
2019-03-30T13:59:37.005Z,54.50
2019-03-30T14:02:05.741Z,55.60
2019-03-30T14:04:34.346Z,55.60
2019-03-30T14:07:03.028Z,55.50
2019-03-30T14:09:31.650Z,55.50
2019-03-30T14:12:00.282Z,55.70
2019-03-30T14:14:28.958Z,54.80
2019-03-30T14:16:57.582Z,54.40
2019-03-30T14:19:26.298Z,54.00
2019-03-30T14:21:55.081Z,54.50
2019-03-30T14:24:23.720Z,55.00
2019-03-30T14:26:52.528Z,54.50
2019-03-30T14:29:21.208Z,54.00
2019-03-30T14:31:49.815Z,55.00
2019-03-30T14:34:18.381Z,55.60
2019-03-30T14:36:47.002Z,54.40
2019-03-30T14:39:15.696Z,54.40
2019-03-30T14:41:44.289Z,54.80
2019-03-30T14:44:12.934Z,55.30
2019-03-30T14:46:41.656Z,55.40
2019-03-30T14:49:10.340Z,55.50
2019-03-30T14:51:38.976Z,55.30
2019-03-30T14:54:07.580Z,55.40
2019-03-30T14:56:45.595Z,55.10
2019-03-30T14:59:10.356Z,55.40
2019-03-30T15:01:36.798Z,54.90
2019-03-30T15:04:05.601Z,55.40
2019-03-30T15:06:34.188Z,55.50
2019-03-30T15:09:04.503Z,55.80
2019-03-30T15:11:33.087Z,56.10
2019-03-30T15:14:01.681Z,56.40
2019-03-30T15:16:30.362Z,56.20
2019-03-30T15:18:58.957Z,55.90
2019-03-30T15:21:27.549Z,55.70
2019-03-30T15:23:56.234Z,54.30
2019-03-30T15:26:24.986Z,54.00
2019-03-30T15:28:53.567Z,53.70
2019-03-30T15:31:22.221Z,53.70
2019-03-30T15:33:53.350Z,53.80
2019-03-30T15:36:21.249Z,54.30
2019-03-30T15:38:49.990Z,54.70
2019-03-30T15:41:18.643Z,55.00
2019-03-30T15:43:47.294Z,55.10
2019-03-30T15:46:15.927Z,54.50
2019-03-30T15:48:44.603Z,54.60
2019-03-30T15:51:13.243Z,54.60
2019-03-30T15:53:41.859Z,54.90
2019-03-30T15:56:10.569Z,55.30
2019-03-30T15:58:39.253Z,55.70
2019-03-30T16:01:07.881Z,55.90
2019-03-30T16:03:36.522Z,56.10
2019-03-30T16:06:05.216Z,56.30
2019-03-30T16:08:33.805Z,56.50
2019-03-30T16:11:02.464Z,56.30
2019-03-30T16:13:31.290Z,56.30
2019-03-30T16:15:59.888Z,56.00
2019-03-30T16:18:28.586Z,56.10
2019-03-30T16:20:57.186Z,54.70
2019-03-30T16:23:25.946Z,55.30
2019-03-30T16:25:54.704Z,55.10
2019-03-30T16:28:23.378Z,55.30
2019-03-30T16:30:52.083Z,55.60
2019-03-30T16:33:20.654Z,56.00
2019-03-30T16:35:49.331Z,56.40
2019-03-30T16:38:18.004Z,56.60
2019-03-30T16:40:46.711Z,56.70
2019-03-30T16:43:15.317Z,56.90
2019-03-30T16:45:43.912Z,57.40
2019-03-30T16:48:14.753Z,57.60
2019-03-30T16:50:42.935Z,57.70
2019-03-30T16:53:11.527Z,57.80
2019-03-30T16:55:40.274Z,58.10
2019-03-30T16:58:08.868Z,58.50
2019-03-30T17:00:37.526Z,58.90
2019-03-30T17:03:06.316Z,59.50
2019-03-30T17:05:35.019Z,60.20
2019-03-30T17:08:03.717Z,59.90
2019-03-30T17:10:32.526Z,60.20
2019-03-30T17:13:01.136Z,60.70
2019-03-30T17:15:29.779Z,61.00
2019-03-30T17:17:58.396Z,61.40
2019-03-30T17:20:26.992Z,61.70
2019-03-30T17:22:58.660Z,62.10
2019-03-30T17:25:26.033Z,62.30
2019-03-30T17:27:58.423Z,62.50
2019-03-30T17:30:25.033Z,62.20
2019-03-30T17:32:53.822Z,61.90
2019-03-30T17:35:22.579Z,62.50
2019-03-30T17:37:51.195Z,62.80
2019-03-30T17:40:19.814Z,63.60
2019-03-30T17:42:48.473Z,62.60
2019-03-30T17:45:17.214Z,62.90
2019-03-30T17:47:45.882Z,63.00
2019-03-30T17:50:14.922Z,63.30
2019-03-30T17:52:43.593Z,64.20
2019-03-30T17:55:13.718Z,63.80
2019-03-30T17:57:42.493Z,64.30
2019-03-30T18:00:13.950Z,64.60
2019-03-30T18:02:42.526Z,65.80
2019-03-30T18:05:11.359Z,65.30
2019-03-30T18:07:40.076Z,65.50
2019-03-30T18:10:10.009Z,65.80
2019-03-30T18:12:38.680Z,66.20
2019-03-30T18:15:08.248Z,66.30
2019-03-30T18:17:36.857Z,66.50
2019-03-30T18:20:06.670Z,66.50
2019-03-30T18:22:35.438Z,66.90
2019-03-30T18:25:05.694Z,67.10
2019-03-30T18:27:34.342Z,67.50
2019-03-30T18:30:03.079Z,68.00
2019-03-30T18:32:32.174Z,68.10
2019-03-30T18:35:00.948Z,67.90
2019-03-30T18:37:30.093Z,68.60
2019-03-30T18:39:59.235Z,68.80
2019-03-30T18:42:28.798Z,69.40
2019-03-30T18:44:58.117Z,69.70
2019-03-30T18:47:26.751Z,69.90
2019-03-30T18:49:55.354Z,70.30
2019-03-30T18:52:24.790Z,70.80
2019-03-30T18:54:54.149Z,70.80
2019-03-30T18:57:22.894Z,70.70
2019-03-30T18:59:51.495Z,71.10
2019-03-30T19:02:20.172Z,71.30
2019-03-30T19:04:48.677Z,71.70
2019-03-30T19:07:17.279Z,71.90
2019-03-30T19:09:45.920Z,72.60
2019-03-30T19:12:14.544Z,73.30
2019-03-30T19:14:43.130Z,73.40
2019-03-30T19:17:11.779Z,74.00
2019-03-30T19:19:40.417Z,74.70
2019-03-30T19:22:09.060Z,75.30
2019-03-30T19:24:37.743Z,75.80
2019-03-30T19:27:06.429Z,76.30
2019-03-30T19:29:35.011Z,77.10
2019-03-30T19:32:03.634Z,77.30
2019-03-30T19:34:32.218Z,78.30
2019-03-30T19:37:00.818Z,78.90
2019-03-30T19:39:29.525Z,79.40
2019-03-30T19:41:58.146Z,79.70
2019-03-30T19:44:26.730Z,80.80
2019-03-30T19:46:55.410Z,81.40
2019-03-30T19:49:23.964Z,81.70
2019-03-30T19:51:52.566Z,82.60
2019-03-30T19:54:21.219Z,83.00
2019-03-30T19:56:49.845Z,83.70
2019-03-30T19:59:18.440Z,84.00
2019-03-30T20:01:47.042Z,84.80
2019-03-30T20:04:15.602Z,85.50
2019-03-30T20:06:44.265Z,85.90
2019-03-30T20:09:12.936Z,86.00
2019-03-30T20:11:41.513Z,85.20
2019-03-30T20:14:10.131Z,86.50
2019-03-30T20:16:42.098Z,86.50
2019-03-30T20:19:12.473Z,87.00
2019-03-30T20:21:39.231Z,87.70
2019-03-30T20:24:07.946Z,88.10
2019-03-30T20:26:36.550Z,88.00
2019-03-30T20:29:05.408Z,87.60
2019-03-30T20:31:33.999Z,88.10
2019-03-30T20:34:02.665Z,88.10
2019-03-30T20:36:31.303Z,88.40
2019-03-30T20:39:00.021Z,88.70
2019-03-30T20:41:28.613Z,89.60
2019-03-30T20:43:57.519Z,89.50
2019-03-30T20:46:26.220Z,89.80
2019-03-30T20:48:54.815Z,90.30
2019-03-30T20:51:23.418Z,90.10
2019-03-30T20:53:52.077Z,90.20
2019-03-30T20:56:20.645Z,90.40
2019-03-30T20:58:49.330Z,90.70
2019-03-30T21:01:18.040Z,90.70
2019-03-30T21:03:46.701Z,90.80
2019-03-30T21:06:15.360Z,91.10
2019-03-30T21:08:43.961Z,91.30
2019-03-30T21:11:12.569Z,91.30
2019-03-30T21:13:41.160Z,91.40
2019-03-30T21:16:09.858Z,91.50
2019-03-30T21:18:38.447Z,91.50
2019-03-30T21:21:09.128Z,91.40
2019-03-30T21:23:37.445Z,91.40
2019-03-30T21:26:06.157Z,91.30
2019-03-30T21:28:34.777Z,91.30
2019-03-30T21:31:03.394Z,91.20
2019-03-30T21:33:31.918Z,91.30
2019-03-30T21:36:00.582Z,91.30
2019-03-30T21:38:29.209Z,91.20
2019-03-30T21:40:57.787Z,91.40
2019-03-30T21:43:26.379Z,91.40
2019-03-30T21:45:54.945Z,91.20
2019-03-30T21:48:23.522Z,91.00
2019-03-30T21:50:52.120Z,91.00
2019-03-30T21:53:20.722Z,91.10
2019-03-30T21:55:49.345Z,91.00
2019-03-30T21:58:17.961Z,91.10
2019-03-30T22:00:46.683Z,91.30
2019-03-30T22:03:15.334Z,91.30
2019-03-30T22:05:43.894Z,91.30
2019-03-30T22:08:12.647Z,91.20
2019-03-30T22:10:41.268Z,91.40
2019-03-30T22:13:09.906Z,91.30
2019-03-30T22:15:38.631Z,91.40
2019-03-30T22:18:07.198Z,91.40
2019-03-30T22:20:35.876Z,91.30
2019-03-30T22:23:04.523Z,91.60
2019-03-30T22:25:33.121Z,91.40
2019-03-30T22:28:01.724Z,91.50
2019-03-30T22:30:30.413Z,91.60
2019-03-30T22:32:59.130Z,91.70
2019-03-30T22:35:27.697Z,91.80
2019-03-30T22:37:56.331Z,91.90
2019-03-30T22:40:24.940Z,91.90
2019-03-30T22:42:53.574Z,91.80
2019-03-30T22:45:22.221Z,91.80
2019-03-30T22:47:50.850Z,91.90
2019-03-30T22:50:19.590Z,92.00
2019-03-30T22:52:48.310Z,92.20
2019-03-30T22:55:16.971Z,92.30
2019-03-30T22:57:45.610Z,92.30
2019-03-30T23:00:38.611Z,92.20
2019-03-30T23:02:58.739Z,92.40
2019-03-30T23:05:27.378Z,92.50
2019-03-30T23:07:55.975Z,92.40
2019-03-30T23:10:24.535Z,92.50
2019-03-30T23:12:53.180Z,92.40
2019-03-30T23:15:21.785Z,92.60
2019-03-30T23:17:50.395Z,92.80
2019-03-30T23:20:18.993Z,92.70
2019-03-30T23:22:47.553Z,92.70
2019-03-30T23:25:16.259Z,92.80
2019-03-30T23:27:44.918Z,92.90
2019-03-30T23:30:15.117Z,93.00
2019-03-30T23:32:43.730Z,93.10
2019-03-30T23:35:14.174Z,93.20
2019-03-30T23:37:42.770Z,93.40
2019-03-30T23:40:11.551Z,93.30
2019-03-30T23:42:40.188Z,93.50
2019-03-30T23:45:10.325Z,93.40
2019-03-30T23:47:39.027Z,93.60
2019-03-30T23:50:07.964Z,93.50
2019-03-30T23:52:36.645Z,93.50
2019-03-30T23:55:06.573Z,93.60
2019-03-30T23:57:35.319Z,93.70
